createdAt,value
2023-01-28T00:00:38.683Z,4.85
2023-01-28T00:03:05.187Z,4.05
2023-01-28T00:05:31.901Z,4.25
2023-01-28T00:07:58.617Z,5.07
2023-01-28T00:10:25.262Z,4.72
2023-01-28T00:12:52.063Z,5.43
2023-01-28T00:15:18.715Z,6.13
2023-01-28T00:17:45.377Z,5.25
2023-01-28T00:20:12.518Z,3.90
2023-01-28T00:22:39.104Z,4.97
2023-01-28T00:25:05.827Z,5.80
2023-01-28T00:27:32.776Z,4.43
2023-01-28T00:29:59.732Z,4.40
2023-01-28T00:32:26.435Z,5.10
2023-01-28T00:34:53.039Z,4.45
2023-01-28T00:37:19.706Z,5.25
2023-01-28T00:39:46.301Z,5.13
2023-01-28T00:42:12.933Z,4.05
2023-01-28T00:44:39.581Z,6.25
2023-01-28T00:47:06.223Z,3.67
2023-01-28T00:49:32.834Z,4.95
2023-01-28T00:51:59.654Z,5.15
2023-01-28T00:54:26.260Z,5.78
2023-01-28T00:56:53.628Z,3.92
2023-01-28T00:59:20.602Z,2.53
2023-01-28T01:01:47.533Z,6.38
2023-01-28T01:04:14.223Z,4.80
2023-01-28T01:06:41.549Z,4.75
2023-01-28T01:09:11.519Z,5.25
2023-01-28T01:11:39.044Z,4.45
2023-01-28T01:14:08.640Z,4.82
2023-01-28T01:16:41.824Z,4.45
2023-01-28T01:19:09.691Z,4.78
2023-01-28T01:21:36.403Z,6.05
2023-01-28T01:24:03.249Z,5.50
2023-01-28T01:26:30.016Z,4.53
2023-01-28T01:28:57.764Z,4.78
2023-01-28T01:31:24.531Z,4.53
2023-01-28T01:33:53.232Z,4.38
2023-01-28T01:36:21.741Z,3.80
2023-01-28T01:38:48.823Z,3.83
2023-01-28T01:41:35.064Z,5.65
2023-01-28T01:44:04.626Z,4.15
2023-01-28T01:46:51.032Z,5.05
2023-01-28T01:49:26.674Z,3.95
2023-01-28T01:52:15.395Z,4.68
2023-01-28T01:54:45.454Z,4.43
2023-01-28T01:57:16.040Z,5.40
2023-01-28T01:59:43.876Z,4.80
2023-01-28T02:02:11.799Z,5.65
2023-01-28T02:04:44.720Z,4.15
2023-01-28T02:07:17.380Z,5.90
2023-01-28T02:09:44.178Z,5.85
2023-01-28T02:12:17.068Z,4.75
2023-01-28T02:15:21.528Z,5.65
2023-01-28T02:17:50.376Z,3.58
2023-01-28T02:20:25.822Z,3.80
2023-01-28T02:23:05.078Z,5.28
2023-01-28T02:25:57.416Z,4.50
2023-01-28T02:28:37.047Z,5.95
2023-01-28T02:31:24.166Z,4.13
2023-01-28T02:33:53.858Z,7.10
2023-01-28T02:36:29.573Z,5.13
2023-01-28T02:39:02.193Z,5.32
2023-01-28T02:41:35.084Z,5.63
2023-01-28T02:44:03.554Z,5.25
2023-01-28T02:46:49.029Z,5.00
2023-01-28T02:49:20.733Z,3.58
2023-01-28T02:52:42.041Z,5.25
2023-01-28T02:55:21.828Z,5.90
2023-01-28T02:58:07.184Z,5.45
2023-01-28T03:00:47.086Z,3.97
2023-01-28T03:03:40.650Z,6.15
2023-01-28T03:06:12.133Z,4.00
2023-01-28T03:09:04.871Z,4.80
2023-01-28T03:14:39.510Z,5.03
2023-01-28T03:17:31.136Z,4.80
2023-01-28T03:20:16.334Z,4.43
2023-01-28T03:23:08.050Z,6.05
2023-01-28T03:25:58.560Z,4.45
2023-01-28T03:28:45.593Z,4.03
2023-01-28T03:31:38.606Z,5.38
2023-01-28T03:34:24.733Z,6.43
2023-01-28T03:36:53.492Z,4.95
2023-01-28T03:39:32.378Z,5.53
2023-01-28T03:42:12.254Z,4.25
2023-01-28T03:45:01.694Z,4.63
2023-01-28T03:47:30.427Z,6.55
2023-01-28T03:49:59.893Z,4.68
2023-01-28T03:52:31.918Z,7.53
2023-01-28T03:55:21.369Z,5.85
2023-01-28T03:57:48.004Z,6.20
2023-01-28T04:00:17.115Z,5.28
2023-01-28T04:02:44.149Z,5.35
2023-01-28T04:05:16.253Z,4.22
2023-01-28T04:07:47.370Z,6.90
2023-01-28T04:10:28.032Z,5.13
2023-01-28T04:13:06.734Z,6.22
2023-01-28T04:15:33.959Z,3.90
2023-01-28T04:18:00.889Z,4.80
2023-01-28T04:20:29.901Z,4.82
2023-01-28T04:22:59.265Z,6.22
2023-01-28T04:25:25.927Z,4.68
2023-01-28T04:27:52.714Z,5.03
2023-01-28T04:30:25.540Z,5.65
2023-01-28T04:33:22.303Z,5.78
2023-01-28T04:36:02.016Z,5.55
2023-01-28T04:38:52.311Z,5.13
2023-01-28T04:41:27.346Z,5.35
2023-01-28T04:43:57.642Z,5.22
2023-01-28T04:46:38.591Z,6.72
2023-01-28T04:49:23.693Z,3.70
2023-01-28T04:51:50.253Z,4.65
2023-01-28T04:54:42.790Z,4.13
2023-01-28T04:57:09.558Z,5.38
2023-01-28T04:59:36.526Z,3.17
2023-01-28T05:02:03.282Z,5.95
2023-01-28T05:04:30.269Z,4.25
2023-01-28T05:06:56.843Z,7.50
2023-01-28T05:09:28.614Z,5.35
2023-01-28T05:11:56.080Z,5.55
2023-01-28T05:14:23.322Z,6.55
2023-01-28T05:16:57.521Z,5.70
2023-01-28T05:19:24.471Z,7.63
2023-01-28T05:21:51.107Z,5.82
2023-01-28T05:24:27.637Z,5.28
2023-01-28T05:26:54.240Z,6.93
2023-01-28T05:29:21.003Z,5.80
2023-01-28T05:31:48.432Z,6.75
2023-01-28T05:34:16.016Z,5.03
2023-01-28T05:36:44.417Z,5.40
2023-01-28T05:39:36.268Z,6.68
2023-01-28T05:42:03.944Z,5.75
2023-01-28T05:44:32.972Z,5.78
2023-01-28T05:47:15.552Z,4.95
2023-01-28T05:49:48.015Z,6.38
2023-01-28T05:52:26.640Z,5.88
2023-01-28T05:54:53.311Z,4.68
2023-01-28T05:57:19.971Z,7.80
2023-01-28T05:59:46.718Z,4.55
2023-01-28T06:02:13.394Z,6.50
2023-01-28T06:07:09.148Z,7.90
2023-01-28T06:09:37.974Z,5.05
2023-01-28T06:12:05.030Z,4.82
2023-01-28T06:14:38.845Z,5.93
2023-01-28T06:17:10.614Z,5.57
2023-01-28T06:19:59.771Z,5.03
2023-01-28T06:22:27.315Z,5.97
2023-01-28T06:24:53.896Z,4.75
2023-01-28T06:27:20.828Z,6.05
2023-01-28T06:29:47.397Z,7.82
2023-01-28T06:32:14.158Z,6.68
2023-01-28T06:34:41.000Z,6.35
2023-01-28T06:37:07.680Z,6.38
2023-01-28T06:39:34.178Z,7.55
2023-01-28T06:42:00.825Z,6.40
2023-01-28T06:44:27.403Z,5.70
2023-01-28T06:46:54.016Z,6.53
2023-01-28T06:49:21.842Z,4.05
2023-01-28T06:51:49.139Z,7.78
2023-01-28T06:54:15.774Z,5.20
2023-01-28T06:56:42.947Z,9.25
2023-01-28T06:59:09.570Z,8.15
2023-01-28T07:01:36.165Z,6.38
2023-01-28T07:04:02.689Z,7.22
2023-01-28T07:06:29.319Z,5.53
2023-01-28T07:08:55.941Z,6.18
2023-01-28T07:11:22.598Z,4.93
2023-01-28T07:13:49.216Z,7.38
2023-01-28T07:16:15.770Z,5.75
2023-01-28T07:18:42.262Z,7.57
2023-01-28T07:21:08.760Z,5.80
2023-01-28T07:23:35.452Z,6.82
2023-01-28T07:26:05.013Z,6.63
2023-01-28T07:28:31.897Z,8.13
2023-01-28T07:30:58.478Z,7.68
2023-01-28T07:33:25.050Z,6.28
2023-01-28T07:35:51.554Z,7.80
2023-01-28T07:38:18.193Z,6.15
2023-01-28T07:40:45.586Z,6.00
2023-01-28T07:43:12.383Z,8.55
2023-01-28T07:45:40.973Z,7.55
2023-01-28T07:48:11.199Z,7.03
2023-01-28T07:50:38.297Z,8.68
2023-01-28T07:53:07.407Z,7.32
2023-01-28T07:55:35.957Z,8.15
2023-01-28T07:58:04.526Z,7.20
2023-01-28T08:00:32.861Z,7.68
2023-01-28T08:03:02.052Z,7.57
2023-01-28T08:05:49.768Z,7.55
2023-01-28T08:08:17.278Z,5.93
2023-01-28T08:10:44.302Z,6.32
2023-01-28T08:13:12.009Z,10.10
2023-01-28T08:15:38.914Z,8.25
2023-01-28T08:18:07.411Z,8.13
2023-01-28T08:20:34.744Z,6.55
2023-01-28T08:23:28.030Z,7.10
2023-01-28T08:25:55.233Z,7.45
2023-01-28T08:28:21.952Z,6.28
2023-01-28T08:30:48.683Z,8.07
2023-01-28T08:33:16.882Z,6.43
2023-01-28T08:35:44.210Z,6.50
2023-01-28T08:38:13.150Z,7.15
2023-01-28T08:40:40.563Z,8.68
2023-01-28T08:43:07.259Z,6.65
2023-01-28T08:45:33.825Z,8.57
2023-01-28T08:48:10.897Z,8.77
2023-01-28T08:50:38.822Z,8.93
2023-01-28T08:55:34.324Z,7.55
2023-01-28T08:58:06.115Z,7.72
2023-01-28T09:00:33.404Z,6.75
2023-01-28T09:03:00.105Z,6.63
2023-01-28T09:05:26.784Z,7.18
2023-01-28T09:07:53.354Z,8.57
2023-01-28T09:10:22.857Z,7.78
2023-01-28T09:12:49.396Z,7.18
2023-01-28T09:15:16.009Z,8.07
2023-01-28T09:17:42.485Z,7.88
2023-01-28T09:20:09.875Z,8.25
2023-01-28T09:22:36.546Z,8.65
2023-01-28T09:25:03.225Z,8.20
2023-01-28T09:27:29.819Z,9.20
2023-01-28T09:29:56.374Z,9.95
2023-01-28T09:32:25.002Z,11.07
2023-01-28T09:34:51.563Z,11.07
2023-01-28T09:37:18.338Z,9.98
2023-01-28T09:39:44.854Z,9.23
2023-01-28T09:42:31.789Z,10.10
2023-01-28T09:45:16.119Z,9.68
2023-01-28T09:47:52.851Z,11.65
2023-01-28T09:50:30.880Z,9.77
2023-01-28T09:53:04.729Z,10.60
2023-01-28T09:55:44.571Z,11.23
2023-01-28T10:00:47.937Z,10.25
2023-01-28T10:03:22.509Z,11.95
2023-01-28T10:06:21.467Z,10.80
2023-01-28T10:09:25.371Z,11.40
2023-01-28T10:12:02.317Z,12.27
2023-01-28T10:14:40.915Z,10.73
2023-01-28T10:17:11.203Z,10.00
2023-01-28T10:19:43.811Z,11.60
2023-01-28T10:22:24.688Z,9.93
2023-01-28T10:25:02.043Z,9.40
2023-01-28T10:27:31.782Z,8.88
2023-01-28T10:30:18.154Z,10.32
2023-01-28T10:32:51.815Z,10.25
2023-01-28T10:35:19.013Z,9.95
2023-01-28T10:37:45.705Z,10.85
2023-01-28T10:40:19.369Z,8.93
2023-01-28T10:42:46.150Z,7.40
2023-01-28T10:45:20.766Z,8.13
2023-01-28T10:47:56.274Z,8.68
2023-01-28T10:50:25.493Z,8.25
2023-01-28T10:53:04.014Z,8.40
2023-01-28T10:55:44.563Z,8.98
2023-01-28T10:58:22.454Z,8.52
2023-01-28T11:00:57.751Z,7.80
2023-01-28T11:03:29.095Z,7.78
2023-01-28T11:05:57.050Z,7.28
2023-01-28T11:08:25.746Z,7.88
2023-01-28T11:10:53.653Z,9.18
2023-01-28T11:13:28.560Z,8.75
2023-01-28T11:16:17.292Z,7.88
2023-01-28T11:18:55.648Z,8.20
2023-01-28T11:21:26.089Z,8.75
2023-01-28T11:24:16.637Z,8.55
2023-01-28T11:26:45.927Z,11.88
2023-01-28T11:29:32.629Z,9.38
2023-01-28T11:32:00.731Z,8.82
2023-01-28T11:34:29.743Z,8.43
2023-01-28T11:37:14.267Z,8.70
2023-01-28T11:39:40.891Z,8.77
2023-01-28T11:42:20.594Z,8.77
2023-01-28T11:44:48.791Z,10.50
2023-01-28T11:47:44.374Z,8.57
2023-01-28T11:50:39.111Z,10.02
2023-01-28T11:53:44.422Z,8.18
2023-01-28T11:56:33.175Z,9.50
2023-01-28T11:58:59.745Z,12.02
2023-01-28T12:01:34.812Z,9.65
2023-01-28T12:04:20.759Z,8.48
2023-01-28T12:06:53.194Z,9.23
2023-01-28T12:09:39.838Z,9.43
2023-01-28T12:12:44.634Z,11.18
2023-01-28T12:15:30.912Z,9.25
2023-01-28T12:18:03.440Z,10.88
2023-01-28T12:20:50.301Z,10.90
2023-01-28T12:23:28.709Z,9.98
2023-01-28T12:26:20.748Z,12.27
2023-01-28T12:29:24.912Z,8.77
2023-01-28T12:32:28.764Z,10.10
2023-01-28T12:35:36.626Z,8.10
2023-01-28T12:38:37.399Z,10.30
2023-01-28T12:41:28.186Z,10.85
2023-01-28T12:44:03.784Z,11.15
2023-01-28T12:46:48.545Z,9.55
2023-01-28T12:49:24.339Z,12.50
2023-01-28T12:52:06.073Z,9.93
2023-01-28T12:54:39.335Z,10.57
2023-01-28T12:59:45.476Z,9.05
2023-01-28T13:02:12.098Z,12.02
2023-01-28T13:04:47.684Z,11.93
2023-01-28T13:07:37.216Z,9.95
2023-01-28T13:10:29.075Z,10.85
2023-01-28T13:12:57.403Z,11.90
2023-01-28T13:15:25.042Z,13.10
2023-01-28T13:18:02.931Z,12.95
2023-01-28T13:20:48.384Z,9.82
2023-01-28T13:23:44.753Z,12.45
2023-01-28T13:26:11.288Z,14.68
2023-01-28T13:28:37.888Z,12.60
2023-01-28T13:31:14.465Z,13.13
2023-01-28T13:33:42.296Z,13.48
2023-01-28T13:36:18.181Z,13.02
2023-01-28T13:38:46.071Z,12.85
2023-01-28T13:41:12.732Z,13.60
2023-01-28T13:43:42.055Z,14.05
2023-01-28T13:46:10.591Z,11.52
2023-01-28T13:48:52.016Z,10.38
2023-01-28T13:51:22.834Z,11.40
2023-01-28T13:53:59.496Z,11.73
2023-01-28T13:56:30.557Z,11.75
2023-01-28T13:59:12.202Z,11.65
2023-01-28T14:02:00.246Z,9.13
2023-01-28T14:04:54.821Z,9.40
2023-01-28T14:07:54.794Z,11.93
2023-01-28T14:11:09.257Z,11.48
2023-01-28T14:13:48.135Z,9.38
2023-01-28T14:16:23.844Z,11.40
2023-01-28T14:18:52.436Z,12.23
2023-01-28T14:21:21.015Z,9.80
2023-01-28T14:23:53.982Z,10.07
2023-01-28T14:26:39.255Z,10.60
2023-01-28T14:29:21.583Z,8.48
2023-01-28T14:31:48.583Z,8.70
2023-01-28T14:34:35.730Z,7.75
2023-01-28T14:37:08.004Z,8.80
2023-01-28T14:39:48.655Z,6.85
2023-01-28T14:42:27.483Z,8.15
2023-01-28T14:45:09.448Z,7.10
2023-01-28T14:47:45.551Z,7.20
2023-01-28T14:50:35.250Z,6.65
2023-01-28T14:53:39.598Z,6.18
2023-01-28T14:56:43.090Z,5.30
2023-01-28T14:59:12.541Z,6.63
2023-01-28T15:01:45.098Z,7.38
2023-01-28T15:04:34.752Z,5.90
2023-01-28T15:07:16.399Z,6.68
2023-01-28T15:09:43.132Z,6.72
2023-01-28T15:12:10.186Z,6.00
2023-01-28T15:14:36.830Z,6.53
2023-01-28T15:17:03.607Z,6.32
2023-01-28T15:19:33.480Z,6.57
2023-01-28T15:22:03.279Z,6.43
2023-01-28T15:24:32.230Z,6.63
2023-01-28T15:26:58.941Z,7.50
2023-01-28T15:29:36.903Z,7.25
2023-01-28T15:32:05.158Z,6.30
2023-01-28T15:34:32.148Z,6.85
2023-01-28T15:37:02.069Z,7.07
2023-01-28T15:39:30.031Z,6.28
2023-01-28T15:42:03.512Z,6.35
2023-01-28T15:44:32.708Z,6.50
2023-01-28T15:47:01.175Z,5.38
2023-01-28T15:49:32.684Z,6.45
2023-01-28T15:52:00.105Z,6.72
2023-01-28T15:54:27.011Z,6.63
2023-01-28T15:56:53.605Z,6.25
2023-01-28T15:59:27.121Z,5.85
2023-01-28T16:02:12.524Z,6.57
2023-01-28T16:04:39.138Z,5.45
2023-01-28T16:07:05.816Z,7.05
2023-01-28T16:09:34.269Z,5.30
2023-01-28T16:12:02.729Z,5.68
2023-01-28T16:14:52.413Z,4.72
2023-01-28T16:17:23.437Z,5.78
2023-01-28T16:20:01.233Z,5.88
2023-01-28T16:22:36.978Z,4.40
2023-01-28T16:25:24.064Z,5.82
2023-01-28T16:27:50.653Z,6.45
2023-01-28T16:30:17.782Z,6.45
2023-01-28T16:32:45.170Z,5.30
2023-01-28T16:35:20.205Z,5.00
2023-01-28T16:37:48.227Z,5.90
2023-01-28T16:42:44.680Z,4.82
2023-01-28T16:45:20.139Z,5.53
2023-01-28T16:47:47.058Z,5.95
2023-01-28T16:50:15.348Z,5.45
2023-01-28T16:52:44.423Z,5.10
2023-01-28T16:55:14.740Z,6.47
2023-01-28T16:57:43.354Z,6.30
2023-01-28T17:00:19.323Z,4.60
2023-01-28T17:02:46.572Z,5.78
2023-01-28T17:05:15.153Z,5.63
2023-01-28T17:07:42.471Z,5.55
2023-01-28T17:10:10.376Z,6.90
2023-01-28T17:12:36.912Z,5.10
2023-01-28T17:15:03.947Z,5.22
2023-01-28T17:17:30.603Z,7.28
2023-01-28T17:19:57.190Z,6.18
2023-01-28T17:22:23.801Z,4.95
2023-01-28T17:24:50.364Z,6.75
2023-01-28T17:27:16.995Z,5.70
2023-01-28T17:29:43.503Z,5.55
2023-01-28T17:32:10.220Z,7.82
2023-01-28T17:34:36.760Z,5.70
2023-01-28T17:37:03.437Z,6.68
2023-01-28T17:39:30.021Z,6.72
2023-01-28T17:41:56.933Z,6.05
2023-01-28T17:44:23.586Z,5.13
2023-01-28T17:46:50.200Z,7.80
2023-01-28T17:49:16.711Z,7.03
2023-01-28T17:51:43.306Z,6.63
2023-01-28T17:54:11.808Z,7.60
2023-01-28T17:56:38.899Z,9.40
2023-01-28T17:59:06.586Z,5.97
2023-01-28T18:01:34.622Z,6.72
2023-01-28T18:04:01.572Z,8.77
2023-01-28T18:06:32.787Z,5.57
2023-01-28T18:09:00.061Z,7.07
2023-01-28T18:11:27.070Z,8.35
2023-01-28T18:13:53.565Z,7.43
2023-01-28T18:16:21.243Z,6.97
2023-01-28T18:18:49.602Z,7.93
2023-01-28T18:21:51.683Z,7.13
2023-01-28T18:24:20.644Z,6.57
2023-01-28T18:26:47.624Z,6.15
2023-01-28T18:29:20.392Z,6.15
2023-01-28T18:31:48.632Z,5.30
2023-01-28T18:39:13.595Z,6.35
2023-01-28T18:41:40.707Z,5.32
2023-01-28T18:44:13.067Z,5.38
2023-01-28T18:46:40.169Z,5.63
2023-01-28T18:49:07.192Z,5.40
2023-01-28T18:51:33.833Z,6.78
2023-01-28T18:54:02.961Z,7.32
2023-01-28T18:56:30.791Z,7.82
2023-01-28T18:58:59.301Z,8.05
2023-01-28T19:01:26.767Z,5.50
2023-01-28T19:03:56.045Z,5.32
2023-01-28T19:06:23.869Z,5.07
2023-01-28T19:08:56.042Z,5.85
2023-01-28T19:11:24.959Z,5.38
2023-01-28T19:13:52.295Z,5.55
2023-01-28T19:16:20.138Z,7.13
2023-01-28T19:18:59.332Z,6.63
2023-01-28T19:21:28.102Z,4.95
2023-01-28T19:23:57.102Z,5.90
2023-01-28T19:26:25.391Z,5.47
2023-01-28T19:28:52.388Z,7.95
2023-01-28T19:31:21.068Z,5.40
2023-01-28T19:33:49.395Z,7.38
2023-01-28T19:36:16.368Z,6.40
2023-01-28T19:38:43.285Z,5.03
2023-01-28T19:41:12.307Z,7.05
2023-01-28T19:43:39.047Z,6.38
2023-01-28T19:46:06.266Z,5.80
2023-01-28T19:48:34.014Z,6.90
2023-01-28T19:51:08.169Z,6.05
2023-01-28T19:53:36.575Z,6.43
2023-01-28T19:56:06.620Z,6.05
2023-01-28T19:58:35.132Z,6.43
2023-01-28T20:01:11.716Z,7.68
2023-01-28T20:03:38.474Z,5.85
2023-01-28T20:06:07.898Z,4.78
2023-01-28T20:08:34.580Z,6.88
2023-01-28T20:11:12.451Z,6.15
2023-01-28T20:13:41.046Z,7.40
2023-01-28T20:16:11.530Z,6.57
2023-01-28T20:18:38.087Z,4.68
2023-01-28T20:21:10.952Z,6.32
2023-01-28T20:23:37.506Z,5.18
2023-01-28T20:26:04.274Z,6.32
2023-01-28T20:28:30.980Z,7.78
2023-01-28T20:30:57.855Z,4.15
2023-01-28T20:33:24.856Z,6.28
2023-01-28T20:35:51.387Z,6.40
2023-01-28T20:38:21.098Z,5.22
2023-01-28T20:40:47.757Z,6.13
2023-01-28T20:43:14.300Z,5.93
2023-01-28T20:45:40.961Z,6.88
2023-01-28T20:48:07.447Z,6.53
2023-01-28T20:50:34.735Z,4.40
2023-01-28T20:53:01.384Z,6.18
2023-01-28T20:55:28.671Z,5.45
2023-01-28T20:57:55.313Z,6.45
2023-01-28T21:00:22.336Z,5.60
2023-01-28T21:02:49.026Z,6.00
2023-01-28T21:05:15.855Z,4.60
2023-01-28T21:07:42.495Z,5.85
2023-01-28T21:10:09.805Z,6.65
2023-01-28T21:12:36.374Z,6.63
2023-01-28T21:15:03.023Z,6.75
2023-01-28T21:17:31.747Z,5.80
2023-01-28T21:19:58.711Z,7.65
2023-01-28T21:22:25.245Z,6.30
2023-01-28T21:24:52.009Z,4.82
2023-01-28T21:27:18.673Z,6.53
2023-01-28T21:29:45.298Z,4.72
2023-01-28T21:32:11.931Z,6.55
2023-01-28T21:34:38.633Z,7.72
2023-01-28T21:37:05.125Z,6.72
2023-01-28T21:39:31.778Z,7.88
2023-01-28T21:41:58.301Z,6.20
2023-01-28T21:44:24.995Z,6.30
2023-01-28T21:46:51.632Z,5.43
2023-01-28T21:49:18.359Z,7.75
2023-01-28T21:51:47.564Z,6.75
2023-01-28T21:54:19.165Z,5.45
2023-01-28T21:56:50.155Z,5.97
2023-01-28T21:59:30.681Z,7.30
2023-01-28T22:02:04.048Z,6.78
2023-01-28T22:04:36.430Z,5.72
2023-01-28T22:07:05.564Z,7.13
2023-01-28T22:09:33.737Z,6.53
2023-01-28T22:14:27.588Z,4.80
2023-01-28T22:16:54.655Z,5.40
2023-01-28T22:19:24.385Z,6.28
2023-01-28T22:21:50.961Z,4.68
2023-01-28T22:24:20.158Z,7.47
2023-01-28T22:26:47.645Z,8.63
2023-01-28T22:29:16.369Z,7.40
2023-01-28T22:31:45.723Z,5.75
2023-01-28T22:34:12.638Z,6.97
2023-01-28T22:36:39.388Z,6.10
2023-01-28T22:39:08.595Z,6.85
2023-01-28T22:41:35.138Z,7.75
2023-01-28T22:44:03.588Z,6.47
2023-01-28T22:46:33.277Z,5.72
2023-01-28T22:49:00.787Z,6.18
2023-01-28T22:51:30.674Z,6.60
2023-01-28T22:53:57.700Z,6.80
2023-01-28T22:56:27.297Z,6.50
2023-01-28T22:58:55.737Z,5.85
2023-01-28T23:01:22.412Z,6.00
2023-01-28T23:03:50.397Z,6.20
2023-01-28T23:06:19.737Z,6.32
2023-01-28T23:08:47.542Z,5.32
2023-01-28T23:11:15.295Z,5.63
2023-01-28T23:14:03.864Z,6.95
2023-01-28T23:16:49.387Z,5.30
2023-01-28T23:19:35.612Z,5.93
2023-01-28T23:22:20.628Z,4.38
2023-01-28T23:24:47.170Z,6.78
2023-01-28T23:27:13.715Z,4.57
2023-01-28T23:29:40.304Z,5.32
2023-01-28T23:32:11.151Z,5.43
2023-01-28T23:34:40.648Z,5.82
2023-01-28T23:37:09.402Z,7.47
2023-01-28T23:39:36.275Z,5.60
2023-01-28T23:42:13.925Z,5.10
2023-01-28T23:44:41.236Z,6.55
2023-01-28T23:47:08.279Z,4.32
2023-01-28T23:49:35.041Z,5.25
2023-01-28T23:52:06.343Z,4.43
2023-01-28T23:54:33.350Z,4.70
2023-01-28T23:57:00.939Z,4.43
2023-01-28T23:59:27.575Z,5.38
